sensor_id;sensor_type;location;lat;lon;timestamp;P1;durP1;ratioP1;P2;durP2;ratioP2
4533;SDS011;2279;51.448;7.306;2023-04-25T00:01:06;16.40;;;5.90;;
4533;SDS011;2279;51.448;7.306;2023-04-25T00:03:33;13.07;;;7.00;;
4533;SDS011;2279;51.448;7.306;2023-04-25T00:06:00;15.77;;;6.38;;
4533;SDS011;2279;51.448;7.306;2023-04-25T00:08:29;10.43;;;6.15;;
4533;SDS011;2279;51.448;7.306;2023-04-25T00:10:56;18.80;;;7.95;;
4533;SDS011;2279;51.448;7.306;2023-04-25T00:13:22;19.27;;;8.27;;
4533;SDS011;2279;51.448;7.306;2023-04-25T00:15:48;16.50;;;6.87;;
4533;SDS011;2279;51.448;7.306;2023-04-25T00:18:15;22.85;;;7.90;;
4533;SDS011;2279;51.448;7.306;2023-04-25T00:20:42;14.77;;;6.75;;
4533;SDS011;2279;51.448;7.306;2023-04-25T00:23:12;10.07;;;5.93;;
4533;SDS011;2279;51.448;7.306;2023-04-25T00:25:42;9.00;;;6.17;;
4533;SDS011;2279;51.448;7.306;2023-04-25T00:28:08;14.25;;;7.20;;
4533;SDS011;2279;51.448;7.306;2023-04-25T00:30:34;19.37;;;7.07;;
4533;SDS011;2279;51.448;7.306;2023-04-25T00:33:00;13.40;;;6.40;;
4533;SDS011;2279;51.448;7.306;2023-04-25T00:35:26;14.63;;;7.10;;
4533;SDS011;2279;51.448;7.306;2023-04-25T00:37:52;16.73;;;7.13;;
4533;SDS011;2279;51.448;7.306;2023-04-25T00:40:20;13.97;;;8.13;;
4533;SDS011;2279;51.448;7.306;2023-04-25T00:42:46;12.20;;;6.73;;
4533;SDS011;2279;51.448;7.306;2023-04-25T00:45:13;14.88;;;7.20;;
4533;SDS011;2279;51.448;7.306;2023-04-25T00:47:42;15.52;;;7.07;;
4533;SDS011;2279;51.448;7.306;2023-04-25T00:50:09;12.73;;;7.85;;
4533;SDS011;2279;51.448;7.306;2023-04-25T00:52:36;10.47;;;5.93;;
4533;SDS011;2279;51.448;7.306;2023-04-25T00:55:02;14.60;;;6.60;;
4533;SDS011;2279;51.448;7.306;2023-04-25T00:57:29;11.18;;;6.43;;
4533;SDS011;2279;51.448;7.306;2023-04-25T00:59:55;13.33;;;6.13;;
4533;SDS011;2279;51.448;7.306;2023-04-25T01:02:21;21.20;;;6.67;;
4533;SDS011;2279;51.448;7.306;2023-04-25T01:04:47;11.60;;;7.47;;
4533;SDS011;2279;51.448;7.306;2023-04-25T01:07:13;16.77;;;6.70;;
4533;SDS011;2279;51.448;7.306;2023-04-25T01:09:41;16.37;;;6.50;;
4533;SDS011;2279;51.448;7.306;2023-04-25T01:12:07;17.23;;;6.82;;
4533;SDS011;2279;51.448;7.306;2023-04-25T01:14:33;12.60;;;7.27;;
4533;SDS011;2279;51.448;7.306;2023-04-25T01:16:59;10.07;;;7.30;;
4533;SDS011;2279;51.448;7.306;2023-04-25T01:19:25;13.73;;;7.60;;
4533;SDS011;2279;51.448;7.306;2023-04-25T01:21:51;16.63;;;7.68;;
4533;SDS011;2279;51.448;7.306;2023-04-25T01:24:17;12.93;;;7.20;;
4533;SDS011;2279;51.448;7.306;2023-04-25T01:26:43;17.63;;;8.77;;
4533;SDS011;2279;51.448;7.306;2023-04-25T01:29:14;14.80;;;8.50;;
4533;SDS011;2279;51.448;7.306;2023-04-25T01:31:40;14.83;;;8.67;;
4533;SDS011;2279;51.448;7.306;2023-04-25T01:34:06;14.90;;;7.80;;
4533;SDS011;2279;51.448;7.306;2023-04-25T01:36:32;11.33;;;7.00;;
4533;SDS011;2279;51.448;7.306;2023-04-25T01:38:59;22.08;;;8.93;;
4533;SDS011;2279;51.448;7.306;2023-04-25T01:41:26;13.80;;;8.33;;
4533;SDS011;2279;51.448;7.306;2023-04-25T01:43:52;13.15;;;7.55;;
4533;SDS011;2279;51.448;7.306;2023-04-25T01:46:18;14.90;;;7.97;;
4533;SDS011;2279;51.448;7.306;2023-04-25T01:48:44;16.80;;;8.30;;
4533;SDS011;2279;51.448;7.306;2023-04-25T01:51:10;16.08;;;9.00;;
4533;SDS011;2279;51.448;7.306;2023-04-25T01:53:36;14.80;;;8.30;;
4533;SDS011;2279;51.448;7.306;2023-04-25T01:56:03;13.88;;;7.70;;
4533;SDS011;2279;51.448;7.306;2023-04-25T01:58:29;30.65;;;10.38;;
4533;SDS011;2279;51.448;7.306;2023-04-25T02:00:55;14.47;;;8.50;;
4533;SDS011;2279;51.448;7.306;2023-04-25T02:03:21;18.10;;;8.20;;
4533;SDS011;2279;51.448;7.306;2023-04-25T02:05:47;19.07;;;8.17;;
4533;SDS011;2279;51.448;7.306;2023-04-25T02:08:13;11.98;;;7.20;;
4533;SDS011;2279;51.448;7.306;2023-04-25T02:10:39;18.07;;;8.43;;
4533;SDS011;2279;51.448;7.306;2023-04-25T02:13:05;17.27;;;7.50;;
4533;SDS011;2279;51.448;7.306;2023-04-25T02:15:31;13.23;;;7.53;;
4533;SDS011;2279;51.448;7.306;2023-04-25T02:17:57;24.10;;;8.65;;
4533;SDS011;2279;51.448;7.306;2023-04-25T02:20:25;13.37;;;8.23;;
4533;SDS011;2279;51.448;7.306;2023-04-25T02:22:51;15.80;;;8.00;;
4533;SDS011;2279;51.448;7.306;2023-04-25T02:25:17;17.40;;;9.50;;
4533;SDS011;2279;51.448;7.306;2023-04-25T02:27:44;19.03;;;8.40;;
4533;SDS011;2279;51.448;7.306;2023-04-25T02:30:11;14.97;;;8.10;;
4533;SDS011;2279;51.448;7.306;2023-04-25T02:32:37;18.00;;;8.30;;
4533;SDS011;2279;51.448;7.306;2023-04-25T02:35:03;18.33;;;9.17;;
4533;SDS011;2279;51.448;7.306;2023-04-25T02:37:30;20.65;;;9.35;;
4533;SDS011;2279;51.448;7.306;2023-04-25T02:39:56;15.68;;;8.35;;
4533;SDS011;2279;51.448;7.306;2023-04-25T02:42:22;13.00;;;9.10;;
4533;SDS011;2279;51.448;7.306;2023-04-25T02:44:48;16.80;;;8.90;;
4533;SDS011;2279;51.448;7.306;2023-04-25T02:47:14;18.35;;;9.02;;
4533;SDS011;2279;51.448;7.306;2023-04-25T02:49:40;21.37;;;9.13;;
4533;SDS011;2279;51.448;7.306;2023-04-25T02:52:06;20.70;;;9.77;;
4533;SDS011;2279;51.448;7.306;2023-04-25T02:54:32;22.92;;;9.73;;
4533;SDS011;2279;51.448;7.306;2023-04-25T02:56:58;14.97;;;6.60;;
4533;SDS011;2279;51.448;7.306;2023-04-25T02:59:24;14.83;;;9.27;;
4533;SDS011;2279;51.448;7.306;2023-04-25T03:01:50;14.23;;;8.50;;
4533;SDS011;2279;51.448;7.306;2023-04-25T03:04:15;26.77;;;9.03;;
4533;SDS011;2279;51.448;7.306;2023-04-25T03:06:43;22.00;;;9.70;;
4533;SDS011;2279;51.448;7.306;2023-04-25T03:09:09;19.53;;;9.13;;
4533;SDS011;2279;51.448;7.306;2023-04-25T03:11:36;24.13;;;10.02;;
4533;SDS011;2279;51.448;7.306;2023-04-25T03:14:02;15.32;;;8.82;;
4533;SDS011;2279;51.448;7.306;2023-04-25T03:16:28;14.80;;;8.13;;
4533;SDS011;2279;51.448;7.306;2023-04-25T03:18:55;19.73;;;9.30;;
4533;SDS011;2279;51.448;7.306;2023-04-25T03:21:21;17.50;;;8.73;;
4533;SDS011;2279;51.448;7.306;2023-04-25T03:23:47;25.30;;;8.82;;
4533;SDS011;2279;51.448;7.306;2023-04-25T03:26:14;12.57;;;7.25;;
4533;SDS011;2279;51.448;7.306;2023-04-25T03:28:41;9.80;;;6.80;;
4533;SDS011;2279;51.448;7.306;2023-04-25T03:31:07;12.43;;;6.33;;
4533;SDS011;2279;51.448;7.306;2023-04-25T03:33:33;17.93;;;7.37;;
4533;SDS011;2279;51.448;7.306;2023-04-25T03:35:59;13.90;;;7.37;;
4533;SDS011;2279;51.448;7.306;2023-04-25T03:38:25;27.07;;;8.43;;
4533;SDS011;2279;51.448;7.306;2023-04-25T03:40:51;21.20;;;8.50;;
4533;SDS011;2279;51.448;7.306;2023-04-25T03:43:17;12.82;;;7.80;;
4533;SDS011;2279;51.448;7.306;2023-04-25T03:45:43;15.57;;;7.87;;
4533;SDS011;2279;51.448;7.306;2023-04-25T03:48:09;18.80;;;9.43;;
4533;SDS011;2279;51.448;7.306;2023-04-25T03:50:35;19.00;;;7.60;;
4533;SDS011;2279;51.448;7.306;2023-04-25T03:53:01;15.73;;;8.10;;
4533;SDS011;2279;51.448;7.306;2023-04-25T03:55:27;14.53;;;7.63;;
4533;SDS011;2279;51.448;7.306;2023-04-25T03:57:53;18.07;;;8.40;;
4533;SDS011;2279;51.448;7.306;2023-04-25T04:00:19;18.20;;;7.10;;
4533;SDS011;2279;51.448;7.306;2023-04-25T04:02:45;13.68;;;7.28;;
4533;SDS011;2279;51.448;7.306;2023-04-25T04:05:11;16.83;;;7.33;;
4533;SDS011;2279;51.448;7.306;2023-04-25T04:07:37;15.10;;;7.10;;
4533;SDS011;2279;51.448;7.306;2023-04-25T04:10:11;13.82;;;7.88;;
4533;SDS011;2279;51.448;7.306;2023-04-25T04:12:37;31.38;;;9.52;;
4533;SDS011;2279;51.448;7.306;2023-04-25T04:15:03;13.87;;;7.40;;
4533;SDS011;2279;51.448;7.306;2023-04-25T04:17:30;12.55;;;8.95;;
4533;SDS011;2279;51.448;7.306;2023-04-25T04:19:56;20.52;;;8.60;;
4533;SDS011;2279;51.448;7.306;2023-04-25T04:22:22;14.20;;;5.73;;
4533;SDS011;2279;51.448;7.306;2023-04-25T04:24:48;12.10;;;7.77;;
4533;SDS011;2279;51.448;7.306;2023-04-25T04:27:18;10.38;;;5.50;;
4533;SDS011;2279;51.448;7.306;2023-04-25T04:29:47;6.38;;;4.10;;
4533;SDS011;2279;51.448;7.306;2023-04-25T04:32:13;10.65;;;5.00;;
4533;SDS011;2279;51.448;7.306;2023-04-25T04:34:39;9.80;;;4.95;;
4533;SDS011;2279;51.448;7.306;2023-04-25T04:37:06;9.70;;;4.97;;
4533;SDS011;2279;51.448;7.306;2023-04-25T04:39:35;9.33;;;3.93;;
4533;SDS011;2279;51.448;7.306;2023-04-25T04:42:01;9.35;;;4.60;;
4533;SDS011;2279;51.448;7.306;2023-04-25T04:44:28;7.53;;;4.63;;
4533;SDS011;2279;51.448;7.306;2023-04-25T04:46:54;6.45;;;4.45;;
4533;SDS011;2279;51.448;7.306;2023-04-25T04:49:20;9.20;;;4.50;;
4533;SDS011;2279;51.448;7.306;2023-04-25T04:51:46;6.30;;;4.13;;
4533;SDS011;2279;51.448;7.306;2023-04-25T04:54:14;17.23;;;4.53;;
4533;SDS011;2279;51.448;7.306;2023-04-25T04:56:40;9.57;;;5.17;;
4533;SDS011;2279;51.448;7.306;2023-04-25T04:59:06;10.38;;;4.43;;
4533;SDS011;2279;51.448;7.306;2023-04-25T05:01:32;8.80;;;4.55;;
4533;SDS011;2279;51.448;7.306;2023-04-25T05:04:01;11.98;;;5.15;;
4533;SDS011;2279;51.448;7.306;2023-04-25T05:06:28;7.57;;;4.38;;
4533;SDS011;2279;51.448;7.306;2023-04-25T05:08:54;9.63;;;5.38;;
4533;SDS011;2279;51.448;7.306;2023-04-25T05:11:21;9.90;;;4.45;;
4533;SDS011;2279;51.448;7.306;2023-04-25T05:13:48;6.93;;;5.47;;
4533;SDS011;2279;51.448;7.306;2023-04-25T05:16:14;11.70;;;4.30;;
4533;SDS011;2279;51.448;7.306;2023-04-25T05:18:39;6.87;;;5.30;;
4533;SDS011;2279;51.448;7.306;2023-04-25T05:21:06;8.82;;;5.18;;
4533;SDS011;2279;51.448;7.306;2023-04-25T05:23:32;10.33;;;5.80;;
4533;SDS011;2279;51.448;7.306;2023-04-25T05:25:58;10.45;;;5.40;;
4533;SDS011;2279;51.448;7.306;2023-04-25T05:28:24;20.88;;;5.47;;
4533;SDS011;2279;51.448;7.306;2023-04-25T05:30:51;10.02;;;5.75;;
4533;SDS011;2279;51.448;7.306;2023-04-25T05:33:17;12.38;;;6.05;;
4533;SDS011;2279;51.448;7.306;2023-04-25T05:35:43;12.60;;;5.85;;
4533;SDS011;2279;51.448;7.306;2023-04-25T05:38:09;17.90;;;8.32;;
4533;SDS011;2279;51.448;7.306;2023-04-25T05:40:36;10.48;;;4.95;;
4533;SDS011;2279;51.448;7.306;2023-04-25T05:43:02;10.52;;;5.60;;
4533;SDS011;2279;51.448;7.306;2023-04-25T05:45:28;15.60;;;6.50;;
4533;SDS011;2279;51.448;7.306;2023-04-25T05:47:54;11.93;;;7.03;;
4533;SDS011;2279;51.448;7.306;2023-04-25T05:50:20;10.00;;;6.43;;
4533;SDS011;2279;51.448;7.306;2023-04-25T05:52:46;10.30;;;6.33;;
4533;SDS011;2279;51.448;7.306;2023-04-25T05:55:12;10.10;;;6.13;;
4533;SDS011;2279;51.448;7.306;2023-04-25T05:57:38;13.37;;;7.93;;
4533;SDS011;2279;51.448;7.306;2023-04-25T06:00:12;17.93;;;7.63;;
4533;SDS011;2279;51.448;7.306;2023-04-25T06:02:38;20.40;;;8.52;;
4533;SDS011;2279;51.448;7.306;2023-04-25T06:05:04;10.23;;;7.10;;
4533;SDS011;2279;51.448;7.306;2023-04-25T06:07:30;17.50;;;6.70;;
4533;SDS011;2279;51.448;7.306;2023-04-25T06:09:56;24.70;;;9.33;;
4533;SDS011;2279;51.448;7.306;2023-04-25T06:12:22;15.90;;;7.13;;
4533;SDS011;2279;51.448;7.306;2023-04-25T06:14:48;19.87;;;8.20;;
4533;SDS011;2279;51.448;7.306;2023-04-25T06:17:14;19.20;;;8.10;;
4533;SDS011;2279;51.448;7.306;2023-04-25T06:19:40;15.13;;;7.90;;
4533;SDS011;2279;51.448;7.306;2023-04-25T06:22:07;12.30;;;7.63;;
4533;SDS011;2279;51.448;7.306;2023-04-25T06:24:33;14.30;;;9.17;;
4533;SDS011;2279;51.448;7.306;2023-04-25T06:26:59;16.70;;;10.47;;
4533;SDS011;2279;51.448;7.306;2023-04-25T06:29:26;17.50;;;8.70;;
4533;SDS011;2279;51.448;7.306;2023-04-25T06:31:52;18.00;;;8.57;;
4533;SDS011;2279;51.448;7.306;2023-04-25T06:34:18;16.33;;;9.00;;
4533;SDS011;2279;51.448;7.306;2023-04-25T06:36:44;18.93;;;8.63;;
4533;SDS011;2279;51.448;7.306;2023-04-25T06:39:10;17.23;;;10.33;;
4533;SDS011;2279;51.448;7.306;2023-04-25T06:41:36;19.67;;;9.57;;
4533;SDS011;2279;51.448;7.306;2023-04-25T06:44:02;22.20;;;12.17;;
4533;SDS011;2279;51.448;7.306;2023-04-25T06:46:28;17.70;;;10.33;;
4533;SDS011;2279;51.448;7.306;2023-04-25T06:48:54;23.30;;;11.30;;
4533;SDS011;2279;51.448;7.306;2023-04-25T06:51:20;14.60;;;7.73;;
4533;SDS011;2279;51.448;7.306;2023-04-25T06:53:46;14.20;;;6.73;;
4533;SDS011;2279;51.448;7.306;2023-04-25T06:56:12;19.73;;;9.67;;
4533;SDS011;2279;51.448;7.306;2023-04-25T06:58:38;16.60;;;6.70;;
4533;SDS011;2279;51.448;7.306;2023-04-25T07:01:04;18.53;;;6.40;;
4533;SDS011;2279;51.448;7.306;2023-04-25T07:03:30;8.53;;;5.60;;
4533;SDS011;2279;51.448;7.306;2023-04-25T07:05:56;8.17;;;5.70;;
4533;SDS011;2279;51.448;7.306;2023-04-25T07:08:22;14.60;;;6.90;;
4533;SDS011;2279;51.448;7.306;2023-04-25T07:10:48;19.90;;;6.93;;
4533;SDS011;2279;51.448;7.306;2023-04-25T07:13:14;16.50;;;7.23;;
4533;SDS011;2279;51.448;7.306;2023-04-25T07:15:40;14.17;;;6.33;;
4533;SDS011;2279;51.448;7.306;2023-04-25T07:18:06;18.23;;;7.87;;
4533;SDS011;2279;51.448;7.306;2023-04-25T07:20:32;20.83;;;6.73;;
4533;SDS011;2279;51.448;7.306;2023-04-25T07:22:58;8.80;;;5.20;;
4533;SDS011;2279;51.448;7.306;2023-04-25T07:25:24;16.10;;;6.80;;
4533;SDS011;2279;51.448;7.306;2023-04-25T07:27:50;11.30;;;6.77;;
4533;SDS011;2279;51.448;7.306;2023-04-25T07:30:16;12.53;;;5.77;;
4533;SDS011;2279;51.448;7.306;2023-04-25T07:32:43;12.93;;;5.57;;
4533;SDS011;2279;51.448;7.306;2023-04-25T07:35:10;10.87;;;6.50;;
4533;SDS011;2279;51.448;7.306;2023-04-25T07:37:36;18.00;;;6.80;;
4533;SDS011;2279;51.448;7.306;2023-04-25T07:40:02;12.50;;;7.23;;
4533;SDS011;2279;51.448;7.306;2023-04-25T07:42:29;20.50;;;6.53;;
4533;SDS011;2279;51.448;7.306;2023-04-25T07:44:55;12.20;;;6.27;;
4533;SDS011;2279;51.448;7.306;2023-04-25T07:47:21;9.10;;;6.70;;
4533;SDS011;2279;51.448;7.306;2023-04-25T07:49:47;15.77;;;7.03;;
4533;SDS011;2279;51.448;7.306;2023-04-25T07:52:13;15.60;;;6.47;;
4533;SDS011;2279;51.448;7.306;2023-04-25T07:54:39;11.20;;;5.57;;
4533;SDS011;2279;51.448;7.306;2023-04-25T07:57:05;10.67;;;5.87;;
4533;SDS011;2279;51.448;7.306;2023-04-25T07:59:31;9.90;;;5.23;;
4533;SDS011;2279;51.448;7.306;2023-04-25T08:01:57;13.50;;;5.30;;
4533;SDS011;2279;51.448;7.306;2023-04-25T08:04:23;14.40;;;6.67;;
4533;SDS011;2279;51.448;7.306;2023-04-25T08:06:50;12.73;;;5.50;;
4533;SDS011;2279;51.448;7.306;2023-04-25T08:09:17;12.60;;;4.37;;
4533;SDS011;2279;51.448;7.306;2023-04-25T08:11:43;10.33;;;4.37;;
4533;SDS011;2279;51.448;7.306;2023-04-25T08:14:09;7.50;;;4.00;;
4533;SDS011;2279;51.448;7.306;2023-04-25T08:16:35;12.20;;;5.10;;
4533;SDS011;2279;51.448;7.306;2023-04-25T08:19:01;9.40;;;3.90;;
4533;SDS011;2279;51.448;7.306;2023-04-25T08:21:27;16.43;;;4.33;;
4533;SDS011;2279;51.448;7.306;2023-04-25T08:23:53;5.07;;;2.80;;
4533;SDS011;2279;51.448;7.306;2023-04-25T08:26:19;8.83;;;3.43;;
4533;SDS011;2279;51.448;7.306;2023-04-25T08:28:46;5.73;;;3.37;;
4533;SDS011;2279;51.448;7.306;2023-04-25T08:31:12;6.60;;;3.43;;
4533;SDS011;2279;51.448;7.306;2023-04-25T08:33:38;10.57;;;3.13;;
4533;SDS011;2279;51.448;7.306;2023-04-25T08:36:04;9.73;;;2.97;;
4533;SDS011;2279;51.448;7.306;2023-04-25T08:38:30;9.20;;;3.30;;
4533;SDS011;2279;51.448;7.306;2023-04-25T08:40:56;13.93;;;3.90;;
4533;SDS011;2279;51.448;7.306;2023-04-25T08:43:23;5.87;;;3.20;;
4533;SDS011;2279;51.448;7.306;2023-04-25T08:45:49;9.17;;;3.60;;
4533;SDS011;2279;51.448;7.306;2023-04-25T08:48:16;9.60;;;4.00;;
4533;SDS011;2279;51.448;7.306;2023-04-25T08:50:49;4.23;;;2.70;;
4533;SDS011;2279;51.448;7.306;2023-04-25T08:53:16;7.00;;;3.47;;
4533;SDS011;2279;51.448;7.306;2023-04-25T08:55:45;11.67;;;3.63;;
4533;SDS011;2279;51.448;7.306;2023-04-25T08:58:11;12.23;;;4.03;;
4533;SDS011;2279;51.448;7.306;2023-04-25T09:00:38;11.00;;;4.50;;
4533;SDS011;2279;51.448;7.306;2023-04-25T09:03:04;10.13;;;4.17;;
4533;SDS011;2279;51.448;7.306;2023-04-25T09:05:32;13.50;;;3.40;;
4533;SDS011;2279;51.448;7.306;2023-04-25T09:07:58;8.67;;;3.27;;
4533;SDS011;2279;51.448;7.306;2023-04-25T09:10:25;8.67;;;2.40;;
4533;SDS011;2279;51.448;7.306;2023-04-25T09:13:01;4.90;;;3.40;;
4533;SDS011;2279;51.448;7.306;2023-04-25T09:15:28;5.17;;;2.47;;
4533;SDS011;2279;51.448;7.306;2023-04-25T09:17:58;7.43;;;2.73;;
4533;SDS011;2279;51.448;7.306;2023-04-25T09:20:25;9.20;;;3.47;;
4533;SDS011;2279;51.448;7.306;2023-04-25T09:23:03;19.30;;;3.60;;
4533;SDS011;2279;51.448;7.306;2023-04-25T09:25:37;6.67;;;2.93;;
4533;SDS011;2279;51.448;7.306;2023-04-25T09:28:04;12.60;;;3.20;;
4533;SDS011;2279;51.448;7.306;2023-04-25T09:30:32;6.83;;;2.90;;
4533;SDS011;2279;51.448;7.306;2023-04-25T09:33:08;7.03;;;3.40;;
4533;SDS011;2279;51.448;7.306;2023-04-25T09:35:35;8.67;;;2.70;;
4533;SDS011;2279;51.448;7.306;2023-04-25T09:38:06;8.93;;;3.37;;
4533;SDS011;2279;51.448;7.306;2023-04-25T09:40:32;10.23;;;4.10;;
4533;SDS011;2279;51.448;7.306;2023-04-25T09:42:58;13.53;;;2.87;;
4533;SDS011;2279;51.448;7.306;2023-04-25T09:45:24;3.83;;;2.60;;
4533;SDS011;2279;51.448;7.306;2023-04-25T09:47:50;10.20;;;4.60;;
4533;SDS011;2279;51.448;7.306;2023-04-25T09:50:22;4.73;;;3.20;;
4533;SDS011;2279;51.448;7.306;2023-04-25T09:53:02;9.73;;;4.10;;
4533;SDS011;2279;51.448;7.306;2023-04-25T09:55:28;10.63;;;3.53;;
4533;SDS011;2279;51.448;7.306;2023-04-25T09:57:54;7.13;;;3.60;;
4533;SDS011;2279;51.448;7.306;2023-04-25T10:00:24;7.60;;;3.10;;
4533;SDS011;2279;51.448;7.306;2023-04-25T10:02:50;12.63;;;4.20;;
4533;SDS011;2279;51.448;7.306;2023-04-25T10:05:17;12.80;;;3.30;;
4533;SDS011;2279;51.448;7.306;2023-04-25T10:07:43;4.27;;;3.23;;
4533;SDS011;2279;51.448;7.306;2023-04-25T10:10:09;2.93;;;2.43;;
4533;SDS011;2279;51.448;7.306;2023-04-25T10:12:38;4.37;;;2.33;;
4533;SDS011;2279;51.448;7.306;2023-04-25T10:15:05;5.40;;;2.83;;
4533;SDS011;2279;51.448;7.306;2023-04-25T10:17:32;5.23;;;3.10;;
4533;SDS011;2279;51.448;7.306;2023-04-25T10:20:00;6.07;;;2.67;;
4533;SDS011;2279;51.448;7.306;2023-04-25T10:22:39;3.43;;;2.30;;
4533;SDS011;2279;51.448;7.306;2023-04-25T10:25:06;3.13;;;2.70;;
4533;SDS011;2279;51.448;7.306;2023-04-25T10:27:33;10.10;;;4.23;;
4533;SDS011;2279;51.448;7.306;2023-04-25T10:30:00;4.80;;;2.73;;
4533;SDS011;2279;51.448;7.306;2023-04-25T10:32:30;4.70;;;2.40;;
4533;SDS011;2279;51.448;7.306;2023-04-25T10:34:57;5.53;;;2.73;;
4533;SDS011;2279;51.448;7.306;2023-04-25T10:37:23;3.63;;;2.83;;
4533;SDS011;2279;51.448;7.306;2023-04-25T10:39:50;5.70;;;2.70;;
4533;SDS011;2279;51.448;7.306;2023-04-25T10:42:18;8.13;;;3.70;;
4533;SDS011;2279;51.448;7.306;2023-04-25T10:45:00;6.20;;;3.10;;
4533;SDS011;2279;51.448;7.306;2023-04-25T10:47:34;5.43;;;3.20;;
4533;SDS011;2279;51.448;7.306;2023-04-25T10:50:04;4.37;;;3.07;;
4533;SDS011;2279;51.448;7.306;2023-04-25T10:52:32;12.93;;;3.40;;
4533;SDS011;2279;51.448;7.306;2023-04-25T10:54:58;6.93;;;2.83;;
4533;SDS011;2279;51.448;7.306;2023-04-25T10:57:41;7.20;;;3.30;;
4533;SDS011;2279;51.448;7.306;2023-04-25T11:05:22;6.13;;;2.70;;
4533;SDS011;2279;51.448;7.306;2023-04-25T11:10:15;8.80;;;3.57;;
4533;SDS011;2279;51.448;7.306;2023-04-25T11:12:41;4.00;;;2.53;;
4533;SDS011;2279;51.448;7.306;2023-04-25T11:15:07;4.83;;;2.10;;
4533;SDS011;2279;51.448;7.306;2023-04-25T11:17:33;5.67;;;3.80;;
4533;SDS011;2279;51.448;7.306;2023-04-25T11:20:00;7.27;;;4.20;;
4533;SDS011;2279;51.448;7.306;2023-04-25T11:22:26;6.23;;;3.17;;
4533;SDS011;2279;51.448;7.306;2023-04-25T11:24:53;12.03;;;3.07;;
4533;SDS011;2279;51.448;7.306;2023-04-25T11:27:19;9.40;;;3.70;;
4533;SDS011;2279;51.448;7.306;2023-04-25T11:29:46;10.03;;;3.40;;
4533;SDS011;2279;51.448;7.306;2023-04-25T11:32:15;6.23;;;3.50;;
4533;SDS011;2279;51.448;7.306;2023-04-25T11:34:43;5.03;;;2.97;;
4533;SDS011;2279;51.448;7.306;2023-04-25T11:37:10;4.87;;;2.63;;
4533;SDS011;2279;51.448;7.306;2023-04-25T11:39:37;10.77;;;5.80;;
4533;SDS011;2279;51.448;7.306;2023-04-25T11:42:04;4.10;;;3.13;;
4533;SDS011;2279;51.448;7.306;2023-04-25T11:44:30;6.37;;;3.63;;
4533;SDS011;2279;51.448;7.306;2023-04-25T11:46:57;12.57;;;3.50;;
4533;SDS011;2279;51.448;7.306;2023-04-25T11:49:23;7.30;;;3.57;;
4533;SDS011;2279;51.448;7.306;2023-04-25T11:51:49;6.70;;;3.10;;
4533;SDS011;2279;51.448;7.306;2023-04-25T11:54:16;10.20;;;5.60;;
4533;SDS011;2279;51.448;7.306;2023-04-25T11:56:44;3.83;;;3.03;;
4533;SDS011;2279;51.448;7.306;2023-04-25T11:59:12;7.37;;;3.17;;
4533;SDS011;2279;51.448;7.306;2023-04-25T12:01:41;5.70;;;3.03;;
4533;SDS011;2279;51.448;7.306;2023-04-25T12:04:17;3.70;;;2.33;;
4533;SDS011;2279;51.448;7.306;2023-04-25T12:06:44;6.00;;;3.93;;
4533;SDS011;2279;51.448;7.306;2023-04-25T12:09:14;4.30;;;3.17;;
4533;SDS011;2279;51.448;7.306;2023-04-25T12:11:44;8.07;;;2.57;;
4533;SDS011;2279;51.448;7.306;2023-04-25T12:14:11;3.27;;;2.27;;
4533;SDS011;2279;51.448;7.306;2023-04-25T12:16:44;3.77;;;2.43;;
4533;SDS011;2279;51.448;7.306;2023-04-25T12:19:13;8.87;;;2.77;;
4533;SDS011;2279;51.448;7.306;2023-04-25T12:21:39;4.13;;;2.33;;
4533;SDS011;2279;51.448;7.306;2023-04-25T12:26:47;4.03;;;3.10;;
4533;SDS011;2279;51.448;7.306;2023-04-25T12:29:17;6.17;;;2.37;;
4533;SDS011;2279;51.448;7.306;2023-04-25T12:31:42;3.50;;;2.57;;
4533;SDS011;2279;51.448;7.306;2023-04-25T12:34:09;3.70;;;2.40;;
4533;SDS011;2279;51.448;7.306;2023-04-25T12:36:35;2.30;;;2.10;;
4533;SDS011;2279;51.448;7.306;2023-04-25T12:39:01;6.57;;;2.20;;
4533;SDS011;2279;51.448;7.306;2023-04-25T12:41:29;8.63;;;2.50;;
4533;SDS011;2279;51.448;7.306;2023-04-25T12:43:55;3.07;;;2.13;;
4533;SDS011;2279;51.448;7.306;2023-04-25T12:46:21;6.10;;;2.70;;
4533;SDS011;2279;51.448;7.306;2023-04-25T12:48:48;4.43;;;2.90;;
4533;SDS011;2279;51.448;7.306;2023-04-25T12:51:14;4.00;;;2.30;;
4533;SDS011;2279;51.448;7.306;2023-04-25T12:53:40;4.37;;;2.40;;
4533;SDS011;2279;51.448;7.306;2023-04-25T12:56:07;6.13;;;2.63;;
4533;SDS011;2279;51.448;7.306;2023-04-25T12:58:32;3.03;;;2.20;;
4533;SDS011;2279;51.448;7.306;2023-04-25T13:00:59;7.70;;;2.40;;
4533;SDS011;2279;51.448;7.306;2023-04-25T13:03:25;4.93;;;3.33;;
4533;SDS011;2279;51.448;7.306;2023-04-25T13:05:51;3.37;;;2.40;;
4533;SDS011;2279;51.448;7.306;2023-04-25T13:08:20;6.23;;;4.00;;
4533;SDS011;2279;51.448;7.306;2023-04-25T13:10:49;7.93;;;2.33;;
4533;SDS011;2279;51.448;7.306;2023-04-25T13:13:15;2.90;;;2.27;;
4533;SDS011;2279;51.448;7.306;2023-04-25T13:15:41;4.93;;;2.57;;
4533;SDS011;2279;51.448;7.306;2023-04-25T13:18:07;3.87;;;2.50;;
4533;SDS011;2279;51.448;7.306;2023-04-25T13:20:33;5.77;;;2.40;;
4533;SDS011;2279;51.448;7.306;2023-04-25T13:23:00;3.13;;;2.43;;
4533;SDS011;2279;51.448;7.306;2023-04-25T13:25:26;4.30;;;2.13;;
4533;SDS011;2279;51.448;7.306;2023-04-25T13:27:51;11.37;;;3.40;;
4533;SDS011;2279;51.448;7.306;2023-04-25T13:30:17;6.50;;;3.07;;
4533;SDS011;2279;51.448;7.306;2023-04-25T13:32:43;4.93;;;2.63;;
4533;SDS011;2279;51.448;7.306;2023-04-25T13:35:13;11.90;;;2.83;;
4533;SDS011;2279;51.448;7.306;2023-04-25T13:37:40;3.93;;;2.70;;
4533;SDS011;2279;51.448;7.306;2023-04-25T13:40:07;9.97;;;2.90;;
4533;SDS011;2279;51.448;7.306;2023-04-25T13:42:35;9.10;;;3.00;;
4533;SDS011;2279;51.448;7.306;2023-04-25T13:45:01;4.03;;;2.63;;
4533;SDS011;2279;51.448;7.306;2023-04-25T13:47:27;3.93;;;2.53;;
4533;SDS011;2279;51.448;7.306;2023-04-25T13:49:53;4.83;;;2.90;;
4533;SDS011;2279;51.448;7.306;2023-04-25T13:52:19;10.80;;;2.53;;
4533;SDS011;2279;51.448;7.306;2023-04-25T13:54:45;4.90;;;2.47;;
4533;SDS011;2279;51.448;7.306;2023-04-25T13:57:12;4.97;;;2.47;;
4533;SDS011;2279;51.448;7.306;2023-04-25T13:59:38;6.47;;;2.67;;
4533;SDS011;2279;51.448;7.306;2023-04-25T14:02:05;5.57;;;3.27;;
4533;SDS011;2279;51.448;7.306;2023-04-25T14:04:32;5.83;;;2.80;;
4533;SDS011;2279;51.448;7.306;2023-04-25T14:06:58;4.87;;;3.13;;
4533;SDS011;2279;51.448;7.306;2023-04-25T14:09:24;3.13;;;2.37;;
4533;SDS011;2279;51.448;7.306;2023-04-25T14:11:52;7.07;;;2.17;;
4533;SDS011;2279;51.448;7.306;2023-04-25T14:14:18;3.10;;;2.10;;
4533;SDS011;2279;51.448;7.306;2023-04-25T14:16:44;7.90;;;2.77;;
4533;SDS011;2279;51.448;7.306;2023-04-25T14:19:12;4.30;;;2.40;;
4533;SDS011;2279;51.448;7.306;2023-04-25T14:21:38;5.40;;;2.20;;
4533;SDS011;2279;51.448;7.306;2023-04-25T14:24:04;3.63;;;2.30;;
4533;SDS011;2279;51.448;7.306;2023-04-25T14:26:31;3.73;;;2.40;;
4533;SDS011;2279;51.448;7.306;2023-04-25T14:28:57;4.30;;;2.30;;
4533;SDS011;2279;51.448;7.306;2023-04-25T14:31:23;4.43;;;3.10;;
4533;SDS011;2279;51.448;7.306;2023-04-25T14:33:49;6.70;;;2.63;;
4533;SDS011;2279;51.448;7.306;2023-04-25T14:36:15;3.93;;;2.53;;
4533;SDS011;2279;51.448;7.306;2023-04-25T14:38:41;4.07;;;2.37;;
4533;SDS011;2279;51.448;7.306;2023-04-25T14:41:07;2.63;;;2.20;;
4533;SDS011;2279;51.448;7.306;2023-04-25T14:43:33;6.70;;;2.40;;
4533;SDS011;2279;51.448;7.306;2023-04-25T14:45:59;4.30;;;2.20;;
4533;SDS011;2279;51.448;7.306;2023-04-25T14:48:26;7.90;;;3.00;;
4533;SDS011;2279;51.448;7.306;2023-04-25T14:50:52;3.70;;;2.40;;
4533;SDS011;2279;51.448;7.306;2023-04-25T14:53:18;8.50;;;2.53;;
4533;SDS011;2279;51.448;7.306;2023-04-25T14:55:44;4.17;;;2.47;;
4533;SDS011;2279;51.448;7.306;2023-04-25T14:58:10;8.40;;;3.93;;
4533;SDS011;2279;51.448;7.306;2023-04-25T15:00:36;5.63;;;2.20;;
4533;SDS011;2279;51.448;7.306;2023-04-25T15:03:03;3.33;;;2.17;;
4533;SDS011;2279;51.448;7.306;2023-04-25T15:05:29;3.83;;;1.73;;
4533;SDS011;2279;51.448;7.306;2023-04-25T15:07:55;5.60;;;2.33;;
4533;SDS011;2279;51.448;7.306;2023-04-25T15:10:21;3.93;;;3.27;;
4533;SDS011;2279;51.448;7.306;2023-04-25T15:12:47;2.93;;;1.90;;
4533;SDS011;2279;51.448;7.306;2023-04-25T15:15:14;3.73;;;2.00;;